sensor_id;sensor_type;location;lat;lon;timestamp;temperature;humidity
51619;DHT22;38518;53.164;5.430;2022-07-29T00:00:07;15.20;84.90
51619;DHT22;38518;53.164;5.430;2022-07-29T00:02:33;15.20;82.90
51619;DHT22;38518;53.164;5.430;2022-07-29T00:04:59;15.10;84.30
51619;DHT22;38518;53.164;5.430;2022-07-29T00:07:25;15.10;84.00
51619;DHT22;38518;53.164;5.430;2022-07-29T00:09:51;15.20;84.10
51619;DHT22;38518;53.164;5.430;2022-07-29T00:12:17;15.10;85.30
51619;DHT22;38518;53.164;5.430;2022-07-29T00:14:43;15.10;87.40
51619;DHT22;38518;53.164;5.430;2022-07-29T00:17:08;15.10;87.90
51619;DHT22;38518;53.164;5.430;2022-07-29T00:19:34;15.10;86.50
51619;DHT22;38518;53.164;5.430;2022-07-29T00:22:01;14.20;86.90
51619;DHT22;38518;53.164;5.430;2022-07-29T00:24:27;15.20;90.00
51619;DHT22;38518;53.164;5.430;2022-07-29T00:26:53;15.10;89.50
51619;DHT22;38518;53.164;5.430;2022-07-29T00:29:18;15.20;90.20
51619;DHT22;38518;53.164;5.430;2022-07-29T00:31:44;15.20;90.70
51619;DHT22;38518;53.164;5.430;2022-07-29T00:34:10;15.20;91.50
51619;DHT22;38518;53.164;5.430;2022-07-29T00:36:56;15.10;92.10
51619;DHT22;38518;53.164;5.430;2022-07-29T00:39:22;15.10;90.90
51619;DHT22;38518;53.164;5.430;2022-07-29T00:41:49;15.10;92.00
51619;DHT22;38518;53.164;5.430;2022-07-29T00:44:15;15.20;91.80
51619;DHT22;38518;53.164;5.430;2022-07-29T00:46:41;15.20;92.30
51619;DHT22;38518;53.164;5.430;2022-07-29T00:49:07;15.10;93.90
51619;DHT22;38518;53.164;5.430;2022-07-29T00:51:35;15.10;94.00
51619;DHT22;38518;53.164;5.430;2022-07-29T00:54:02;15.10;95.60
51619;DHT22;38518;53.164;5.430;2022-07-29T00:56:30;15.10;94.80
51619;DHT22;38518;53.164;5.430;2022-07-29T00:58:57;15.10;96.50
51619;DHT22;38518;53.164;5.430;2022-07-29T01:01:23;15.10;97.40
51619;DHT22;38518;53.164;5.430;2022-07-29T01:03:49;15.10;98.10
51619;DHT22;38518;53.164;5.430;2022-07-29T01:06:16;15.20;98.90
51619;DHT22;38518;53.164;5.430;2022-07-29T01:08:44;15.10;99.90
51619;DHT22;38518;53.164;5.430;2022-07-29T01:11:10;15.00;99.90
51619;DHT22;38518;53.164;5.430;2022-07-29T01:13:36;15.00;99.90
51619;DHT22;38518;53.164;5.430;2022-07-29T01:16:21;15.00;99.90
51619;DHT22;38518;53.164;5.430;2022-07-29T01:18:53;15.00;99.90
51619;DHT22;38518;53.164;5.430;2022-07-29T01:29:33;15.00;99.90
51619;DHT22;38518;53.164;5.430;2022-07-29T01:32:07;15.00;99.90
51619;DHT22;38518;53.164;5.430;2022-07-29T01:37:43;15.00;99.90
51619;DHT22;38518;53.164;5.430;2022-07-29T01:40:28;14.90;99.90
51619;DHT22;38518;53.164;5.430;2022-07-29T01:42:58;14.90;99.90
51619;DHT22;38518;53.164;5.430;2022-07-29T01:45:41;15.00;99.90
51619;DHT22;38518;53.164;5.430;2022-07-29T01:48:24;15.00;99.90
51619;DHT22;38518;53.164;5.430;2022-07-29T01:51:11;15.00;99.90
51619;DHT22;38518;53.164;5.430;2022-07-29T01:56:24;15.50;99.90
51619;DHT22;38518;53.164;5.430;2022-07-29T01:58:52;15.00;99.90
51619;DHT22;38518;53.164;5.430;2022-07-29T02:01:20;15.00;99.90
51619;DHT22;38518;53.164;5.430;2022-07-29T02:03:47;14.90;99.90
51619;DHT22;38518;53.164;5.430;2022-07-29T02:06:17;15.00;99.90
51619;DHT22;38518;53.164;5.430;2022-07-29T02:08:45;14.90;99.90
51619;DHT22;38518;53.164;5.430;2022-07-29T02:11:12;14.90;99.90
51619;DHT22;38518;53.164;5.430;2022-07-29T02:13:38;14.90;99.90
51619;DHT22;38518;53.164;5.430;2022-07-29T02:16:06;14.90;99.90
51619;DHT22;38518;53.164;5.430;2022-07-29T02:18:33;14.90;99.90
51619;DHT22;38518;53.164;5.430;2022-07-29T02:21:03;14.90;99.90
51619;DHT22;38518;53.164;5.430;2022-07-29T02:23:31;14.80;99.90
51619;DHT22;38518;53.164;5.430;2022-07-29T02:25:59;14.80;99.90
51619;DHT22;38518;53.164;5.430;2022-07-29T02:28:29;14.80;99.90
51619;DHT22;38518;53.164;5.430;2022-07-29T02:30:59;14.80;99.90
51619;DHT22;38518;53.164;5.430;2022-07-29T02:33:26;14.80;99.90
51619;DHT22;38518;53.164;5.430;2022-07-29T02:35:53;14.80;99.90
51619;DHT22;38518;53.164;5.430;2022-07-29T02:38:21;14.80;99.90
51619;DHT22;38518;53.164;5.430;2022-07-29T02:41:15;14.80;99.90
51619;DHT22;38518;53.164;5.430;2022-07-29T02:43:46;14.80;99.90
51619;DHT22;38518;53.164;5.430;2022-07-29T02:46:16;14.80;99.90
51619;DHT22;38518;53.164;5.430;2022-07-29T02:48:50;14.80;99.90
51619;DHT22;38518;53.164;5.430;2022-07-29T02:55:02;14.90;99.90
51619;DHT22;38518;53.164;5.430;2022-07-29T02:57:41;14.90;99.90
51619;DHT22;38518;53.164;5.430;2022-07-29T03:00:10;14.90;99.90
51619;DHT22;38518;53.164;5.430;2022-07-29T03:02:40;14.80;99.90
51619;DHT22;38518;53.164;5.430;2022-07-29T03:05:11;14.80;99.90
51619;DHT22;38518;53.164;5.430;2022-07-29T03:07:39;14.80;99.90
51619;DHT22;38518;53.164;5.430;2022-07-29T03:10:06;14.80;99.90
51619;DHT22;38518;53.164;5.430;2022-07-29T03:12:34;14.80;99.90
51619;DHT22;38518;53.164;5.430;2022-07-29T03:15:01;14.70;99.90
51619;DHT22;38518;53.164;5.430;2022-07-29T03:17:27;14.80;99.90
51619;DHT22;38518;53.164;5.430;2022-07-29T03:19:53;14.80;99.90
51619;DHT22;38518;53.164;5.430;2022-07-29T03:22:20;14.80;99.90
51619;DHT22;38518;53.164;5.430;2022-07-29T03:24:46;14.80;99.90
51619;DHT22;38518;53.164;5.430;2022-07-29T03:27:12;14.80;99.90
51619;DHT22;38518;53.164;5.430;2022-07-29T03:29:37;14.70;99.90
51619;DHT22;38518;53.164;5.430;2022-07-29T03:32:04;14.80;99.90
51619;DHT22;38518;53.164;5.430;2022-07-29T03:34:31;14.70;99.90
51619;DHT22;38518;53.164;5.430;2022-07-29T03:36:56;14.80;99.90
51619;DHT22;38518;53.164;5.430;2022-07-29T03:39:25;14.80;99.90
51619;DHT22;38518;53.164;5.430;2022-07-29T03:41:55;14.70;99.90
51619;DHT22;38518;53.164;5.430;2022-07-29T03:44:22;14.70;99.90
51619;DHT22;38518;53.164;5.430;2022-07-29T03:46:50;14.70;99.90
51619;DHT22;38518;53.164;5.430;2022-07-29T03:49:18;13.80;99.90
51619;DHT22;38518;53.164;5.430;2022-07-29T03:51:45;14.70;99.90
51619;DHT22;38518;53.164;5.430;2022-07-29T03:54:11;14.70;99.90
51619;DHT22;38518;53.164;5.430;2022-07-29T03:56:40;14.60;99.90
51619;DHT22;38518;53.164;5.430;2022-07-29T03:59:07;13.90;99.90
51619;DHT22;38518;53.164;5.430;2022-07-29T04:01:34;14.70;99.90
51619;DHT22;38518;53.164;5.430;2022-07-29T04:04:02;14.70;99.90
51619;DHT22;38518;53.164;5.430;2022-07-29T04:06:28;14.70;99.90
51619;DHT22;38518;53.164;5.430;2022-07-29T04:08:53;14.70;99.90
51619;DHT22;38518;53.164;5.430;2022-07-29T04:11:19;14.70;99.90
51619;DHT22;38518;53.164;5.430;2022-07-29T04:13:45;14.70;99.90
51619;DHT22;38518;53.164;5.430;2022-07-29T04:16:11;14.70;99.90
51619;DHT22;38518;53.164;5.430;2022-07-29T04:18:36;14.70;99.90
51619;DHT22;38518;53.164;5.430;2022-07-29T04:21:02;14.70;99.90
51619;DHT22;38518;53.164;5.430;2022-07-29T04:23:29;14.70;99.90
51619;DHT22;38518;53.164;5.430;2022-07-29T04:25:59;14.80;99.90
51619;DHT22;38518;53.164;5.430;2022-07-29T04:28:26;14.80;99.90
51619;DHT22;38518;53.164;5.430;2022-07-29T04:30:52;14.80;99.90
51619;DHT22;38518;53.164;5.430;2022-07-29T04:33:18;14.80;99.90
51619;DHT22;38518;53.164;5.430;2022-07-29T04:35:43;14.90;99.90
51619;DHT22;38518;53.164;5.430;2022-07-29T04:38:09;14.90;99.90
51619;DHT22;38518;53.164;5.430;2022-07-29T04:40:35;14.90;99.90
51619;DHT22;38518;53.164;5.430;2022-07-29T04:43:01;14.90;99.90
51619;DHT22;38518;53.164;5.430;2022-07-29T04:45:27;15.00;99.90
51619;DHT22;38518;53.164;5.430;2022-07-29T04:47:54;15.00;99.90
51619;DHT22;38518;53.164;5.430;2022-07-29T04:50:19;15.10;99.90
51619;DHT22;38518;53.164;5.430;2022-07-29T04:52:45;15.10;99.90
51619;DHT22;38518;53.164;5.430;2022-07-29T04:55:11;15.20;99.90
51619;DHT22;38518;53.164;5.430;2022-07-29T04:57:37;14.30;99.90
51619;DHT22;38518;53.164;5.430;2022-07-29T05:00:04;15.20;99.90
51619;DHT22;38518;53.164;5.430;2022-07-29T05:02:31;15.30;99.90
51619;DHT22;38518;53.164;5.430;2022-07-29T05:04:56;15.30;99.90
51619;DHT22;38518;53.164;5.430;2022-07-29T05:07:22;15.40;99.90
51619;DHT22;38518;53.164;5.430;2022-07-29T05:09:48;15.40;99.90
51619;DHT22;38518;53.164;5.430;2022-07-29T05:12:14;15.50;99.90
51619;DHT22;38518;53.164;5.430;2022-07-29T05:14:40;15.60;99.90
51619;DHT22;38518;53.164;5.430;2022-07-29T05:17:05;14.80;99.90
51619;DHT22;38518;53.164;5.430;2022-07-29T05:19:31;15.60;99.90
51619;DHT22;38518;53.164;5.430;2022-07-29T05:21:57;15.60;99.90
51619;DHT22;38518;53.164;5.430;2022-07-29T05:24:23;15.70;99.90
51619;DHT22;38518;53.164;5.430;2022-07-29T05:26:49;15.70;99.90
51619;DHT22;38518;53.164;5.430;2022-07-29T05:29:14;15.80;99.90
51619;DHT22;38518;53.164;5.430;2022-07-29T05:31:40;15.80;99.90
51619;DHT22;38518;53.164;5.430;2022-07-29T05:34:06;15.80;99.90
51619;DHT22;38518;53.164;5.430;2022-07-29T05:36:32;15.90;99.90
51619;DHT22;38518;53.164;5.430;2022-07-29T05:38:57;15.90;99.90
51619;DHT22;38518;53.164;5.430;2022-07-29T05:41:23;16.00;99.90
51619;DHT22;38518;53.164;5.430;2022-07-29T05:43:49;16.00;99.90
51619;DHT22;38518;53.164;5.430;2022-07-29T05:46:15;16.10;99.90
51619;DHT22;38518;53.164;5.430;2022-07-29T05:48:40;16.20;99.90
51619;DHT22;38518;53.164;5.430;2022-07-29T05:51:06;16.40;99.90
51619;DHT22;38518;53.164;5.430;2022-07-29T05:53:32;16.50;99.90
51619;DHT22;38518;53.164;5.430;2022-07-29T05:55:58;16.70;99.90
51619;DHT22;38518;53.164;5.430;2022-07-29T05:58:23;16.80;99.90
51619;DHT22;38518;53.164;5.430;2022-07-29T06:00:49;16.90;99.90
51619;DHT22;38518;53.164;5.430;2022-07-29T06:03:15;17.00;99.90
51619;DHT22;38518;53.164;5.430;2022-07-29T06:05:41;17.10;99.90
51619;DHT22;38518;53.164;5.430;2022-07-29T06:08:07;17.20;99.90
51619;DHT22;38518;53.164;5.430;2022-07-29T06:10:34;17.30;99.90
51619;DHT22;38518;53.164;5.430;2022-07-29T06:13:00;17.30;99.90
51619;DHT22;38518;53.164;5.430;2022-07-29T06:15:26;17.40;99.90
51619;DHT22;38518;53.164;5.430;2022-07-29T06:17:52;17.50;99.90
51619;DHT22;38518;53.164;5.430;2022-07-29T06:20:18;17.50;99.30
51619;DHT22;38518;53.164;5.430;2022-07-29T06:22:44;17.50;99.50
51619;DHT22;38518;53.164;5.430;2022-07-29T06:25:10;17.50;96.60
51619;DHT22;38518;53.164;5.430;2022-07-29T06:27:35;17.50;93.50
51619;DHT22;38518;53.164;5.430;2022-07-29T06:30:02;17.60;94.40
51619;DHT22;38518;53.164;5.430;2022-07-29T06:32:28;17.60;93.70
51619;DHT22;38518;53.164;5.430;2022-07-29T06:34:53;17.60;88.60
51619;DHT22;38518;53.164;5.430;2022-07-29T06:37:19;17.70;87.80
51619;DHT22;38518;53.164;5.430;2022-07-29T06:39:45;17.70;85.10
51619;DHT22;38518;53.164;5.430;2022-07-29T06:42:11;17.70;81.90
51619;DHT22;38518;53.164;5.430;2022-07-29T06:44:36;17.80;72.80
51619;DHT22;38518;53.164;5.430;2022-07-29T06:47:03;17.20;74.50
51619;DHT22;38518;53.164;5.430;2022-07-29T06:49:29;17.80;76.00
51619;DHT22;38518;53.164;5.430;2022-07-29T06:51:55;17.90;72.60
51619;DHT22;38518;53.164;5.430;2022-07-29T06:54:21;17.90;69.20
51619;DHT22;38518;53.164;5.430;2022-07-29T06:56:47;17.90;69.80
51619;DHT22;38518;53.164;5.430;2022-07-29T06:59:13;18.00;65.00
51619;DHT22;38518;53.164;5.430;2022-07-29T07:01:41;18.00;60.00
51619;DHT22;38518;53.164;5.430;2022-07-29T07:04:08;18.00;56.40
51619;DHT22;38518;53.164;5.430;2022-07-29T07:06:34;18.10;53.70
51619;DHT22;38518;53.164;5.430;2022-07-29T07:09:00;18.00;52.00
51619;DHT22;38518;53.164;5.430;2022-07-29T07:11:26;18.10;51.50
51619;DHT22;38518;53.164;5.430;2022-07-29T07:13:53;18.10;54.00
51619;DHT22;38518;53.164;5.430;2022-07-29T07:16:19;18.10;52.10
51619;DHT22;38518;53.164;5.430;2022-07-29T07:18:44;18.20;50.70
51619;DHT22;38518;53.164;5.430;2022-07-29T07:21:11;18.20;51.20
51619;DHT22;38518;53.164;5.430;2022-07-29T07:23:36;18.20;49.70
51619;DHT22;38518;53.164;5.430;2022-07-29T07:26:03;18.20;47.30
51619;DHT22;38518;53.164;5.430;2022-07-29T07:28:31;18.20;48.40
51619;DHT22;38518;53.164;5.430;2022-07-29T07:30:56;18.30;47.80
51619;DHT22;38518;53.164;5.430;2022-07-29T07:33:22;18.30;47.90
51619;DHT22;38518;53.164;5.430;2022-07-29T07:35:48;18.40;46.20
51619;DHT22;38518;53.164;5.430;2022-07-29T07:38:14;18.40;44.80
51619;DHT22;38518;53.164;5.430;2022-07-29T07:40:40;18.50;42.60
51619;DHT22;38518;53.164;5.430;2022-07-29T07:43:06;18.50;40.30
51619;DHT22;38518;53.164;5.430;2022-07-29T07:45:31;18.50;39.10
51619;DHT22;38518;53.164;5.430;2022-07-29T07:48:03;18.60;38.90
51619;DHT22;38518;53.164;5.430;2022-07-29T07:50:28;18.60;38.00
51619;DHT22;38518;53.164;5.430;2022-07-29T07:52:55;18.60;39.60
51619;DHT22;38518;53.164;5.430;2022-07-29T07:55:23;18.70;40.50
51619;DHT22;38518;53.164;5.430;2022-07-29T07:57:49;18.80;38.40
51619;DHT22;38518;53.164;5.430;2022-07-29T08:00:16;18.80;37.10
51619;DHT22;38518;53.164;5.430;2022-07-29T08:02:42;18.80;37.20
51619;DHT22;38518;53.164;5.430;2022-07-29T08:05:09;18.90;36.60
51619;DHT22;38518;53.164;5.430;2022-07-29T08:07:34;18.90;35.20
51619;DHT22;38518;53.164;5.430;2022-07-29T08:10:01;19.00;34.00
51619;DHT22;38518;53.164;5.430;2022-07-29T08:12:26;19.00;35.60
51619;DHT22;38518;53.164;5.430;2022-07-29T08:14:52;19.10;34.40
51619;DHT22;38518;53.164;5.430;2022-07-29T08:17:18;19.10;34.30
51619;DHT22;38518;53.164;5.430;2022-07-29T08:19:44;19.10;35.30
51619;DHT22;38518;53.164;5.430;2022-07-29T08:22:09;19.20;34.10
51619;DHT22;38518;53.164;5.430;2022-07-29T08:24:35;19.20;32.70
51619;DHT22;38518;53.164;5.430;2022-07-29T08:27:13;19.30;32.30
51619;DHT22;38518;53.164;5.430;2022-07-29T08:29:39;19.40;30.80
51619;DHT22;38518;53.164;5.430;2022-07-29T08:32:06;19.40;28.80
51619;DHT22;38518;53.164;5.430;2022-07-29T08:34:32;19.50;26.40
51619;DHT22;38518;53.164;5.430;2022-07-29T08:36:58;19.50;26.60
51619;DHT22;38518;53.164;5.430;2022-07-29T08:39:24;19.60;26.70
51619;DHT22;38518;53.164;5.430;2022-07-29T08:41:51;19.70;25.60
51619;DHT22;38518;53.164;5.430;2022-07-29T08:44:19;19.80;26.10
51619;DHT22;38518;53.164;5.430;2022-07-29T08:46:47;19.80;25.20
51619;DHT22;38518;53.164;5.430;2022-07-29T08:49:13;19.90;24.20
51619;DHT22;38518;53.164;5.430;2022-07-29T08:51:40;19.80;24.80
51619;DHT22;38518;53.164;5.430;2022-07-29T08:54:08;19.90;22.70
51619;DHT22;38518;53.164;5.430;2022-07-29T08:56:34;19.90;23.40
51619;DHT22;38518;53.164;5.430;2022-07-29T08:59:03;19.80;23.30
51619;DHT22;38518;53.164;5.430;2022-07-29T09:01:33;19.80;23.00
51619;DHT22;38518;53.164;5.430;2022-07-29T09:04:01;19.90;22.10
51619;DHT22;38518;53.164;5.430;2022-07-29T09:06:31;19.80;21.80
51619;DHT22;38518;53.164;5.430;2022-07-29T09:09:00;19.80;21.60
51619;DHT22;38518;53.164;5.430;2022-07-29T09:11:26;19.70;21.60
51619;DHT22;38518;53.164;5.430;2022-07-29T09:13:52;19.70;21.90
51619;DHT22;38518;53.164;5.430;2022-07-29T09:16:18;19.60;23.20
51619;DHT22;38518;53.164;5.430;2022-07-29T09:18:45;19.60;22.60
51619;DHT22;38518;53.164;5.430;2022-07-29T09:21:13;19.60;21.10
51619;DHT22;38518;53.164;5.430;2022-07-29T09:24:12;19.40;20.20
51619;DHT22;38518;53.164;5.430;2022-07-29T09:26:45;19.50;20.60
51619;DHT22;38518;53.164;5.430;2022-07-29T09:29:13;19.50;20.50
51619;DHT22;38518;53.164;5.430;2022-07-29T09:31:42;19.50;19.90
51619;DHT22;38518;53.164;5.430;2022-07-29T09:34:09;19.50;19.00
51619;DHT22;38518;53.164;5.430;2022-07-29T09:36:45;19.40;19.70
51619;DHT22;38518;53.164;5.430;2022-07-29T09:39:12;19.50;19.30
51619;DHT22;38518;53.164;5.430;2022-07-29T09:41:53;19.50;20.00
51619;DHT22;38518;53.164;5.430;2022-07-29T09:44:20;19.50;20.60
51619;DHT22;38518;53.164;5.430;2022-07-29T09:46:56;19.50;21.10
51619;DHT22;38518;53.164;5.430;2022-07-29T09:49:23;18.70;22.30
51619;DHT22;38518;53.164;5.430;2022-07-29T09:54:31;19.50;25.70
51619;DHT22;38518;53.164;5.430;2022-07-29T09:57:03;19.50;26.70
51619;DHT22;38518;53.164;5.430;2022-07-29T09:59:30;19.60;27.60
51619;DHT22;38518;53.164;5.430;2022-07-29T10:01:56;19.60;27.90
51619;DHT22;38518;53.164;5.430;2022-07-29T10:04:22;19.60;27.90
51619;DHT22;38518;53.164;5.430;2022-07-29T10:06:59;19.60;29.10
51619;DHT22;38518;53.164;5.430;2022-07-29T10:09:25;19.60;35.60
51619;DHT22;38518;53.164;5.430;2022-07-29T10:12:09;19.60;38.60
51619;DHT22;38518;53.164;5.430;2022-07-29T10:14:38;19.60;43.60
51619;DHT22;38518;53.164;5.430;2022-07-29T10:17:05;19.60;47.40
51619;DHT22;38518;53.164;5.430;2022-07-29T10:19:32;19.60;48.10
51619;DHT22;38518;53.164;5.430;2022-07-29T10:22:00;19.60;52.60
51619;DHT22;38518;53.164;5.430;2022-07-29T10:24:27;19.60;50.40
51619;DHT22;38518;53.164;5.430;2022-07-29T10:26:57;19.60;52.30
51619;DHT22;38518;53.164;5.430;2022-07-29T10:29:24;19.60;54.70
51619;DHT22;38518;53.164;5.430;2022-07-29T10:40:40;19.50;57.80
51619;DHT22;38518;53.164;5.430;2022-07-29T10:43:34;20.20;62.60
51619;DHT22;38518;53.164;5.430;2022-07-29T10:46:02;19.40;64.60
51619;DHT22;38518;53.164;5.430;2022-07-29T10:48:29;19.30;67.20
51619;DHT22;38518;53.164;5.430;2022-07-29T10:53:21;19.20;75.80
51619;DHT22;38518;53.164;5.430;2022-07-29T10:55:47;19.20;75.70
51619;DHT22;38518;53.164;5.430;2022-07-29T10:58:20;19.20;83.40
51619;DHT22;38518;53.164;5.430;2022-07-29T11:00:50;19.20;85.20
51619;DHT22;38518;53.164;5.430;2022-07-29T11:03:47;18.90;90.30
51619;DHT22;38518;53.164;5.430;2022-07-29T11:06:15;19.20;92.10
51619;DHT22;38518;53.164;5.430;2022-07-29T11:08:41;19.20;92.10
51619;DHT22;38518;53.164;5.430;2022-07-29T11:13:46;19.20;95.00
51619;DHT22;38518;53.164;5.430;2022-07-29T11:16:13;19.10;97.60
51619;DHT22;38518;53.164;5.430;2022-07-29T11:21:38;19.10;99.90
51619;DHT22;38518;53.164;5.430;2022-07-29T11:24:15;19.20;99.90
51619;DHT22;38518;53.164;5.430;2022-07-29T11:26:42;19.20;99.90
51619;DHT22;38518;53.164;5.430;2022-07-29T11:31:42;19.30;99.90
51619;DHT22;38518;53.164;5.430;2022-07-29T11:34:31;19.40;99.80
51619;DHT22;38518;53.164;5.430;2022-07-29T11:39:39;19.50;97.40
51619;DHT22;38518;53.164;5.430;2022-07-29T11:47:22;19.50;93.30
51619;DHT22;38518;53.164;5.430;2022-07-29T11:49:50;19.60;94.10
51619;DHT22;38518;53.164;5.430;2022-07-29T11:52:17;19.60;94.30
51619;DHT22;38518;53.164;5.430;2022-07-29T11:54:43;19.70;91.30
51619;DHT22;38518;53.164;5.430;2022-07-29T11:57:10;19.70;78.90
51619;DHT22;38518;53.164;5.430;2022-07-29T11:59:44;19.80;74.50
51619;DHT22;38518;53.164;5.430;2022-07-29T12:02:10;19.80;74.50
51619;DHT22;38518;53.164;5.430;2022-07-29T12:04:52;19.90;77.00
51619;DHT22;38518;53.164;5.430;2022-07-29T12:07:19;19.90;78.70
51619;DHT22;38518;53.164;5.430;2022-07-29T12:09:53;20.10;79.40
51619;DHT22;38518;53.164;5.430;2022-07-29T12:12:21;20.20;72.10
51619;DHT22;38518;53.164;5.430;2022-07-29T12:14:47;20.30;74.10
51619;DHT22;38518;53.164;5.430;2022-07-29T12:17:33;20.40;74.00
51619;DHT22;38518;53.164;5.430;2022-07-29T12:20:01;20.60;71.60
51619;DHT22;38518;53.164;5.430;2022-07-29T12:22:36;20.70;75.40
51619;DHT22;38518;53.164;5.430;2022-07-29T12:25:11;20.90;71.90
51619;DHT22;38518;53.164;5.430;2022-07-29T12:27:39;21.00;71.60
51619;DHT22;38518;53.164;5.430;2022-07-29T12:30:08;21.10;71.50
51619;DHT22;38518;53.164;5.430;2022-07-29T12:32:43;21.30;69.30
51619;DHT22;38518;53.164;5.430;2022-07-29T12:35:15;21.80;63.60
51619;DHT22;38518;53.164;5.430;2022-07-29T12:37:42;22.30;73.30
51619;DHT22;38518;53.164;5.430;2022-07-29T12:40:11;22.80;72.60
51619;DHT22;38518;53.164;5.430;2022-07-29T12:42:37;23.50;51.10
51619;DHT22;38518;53.164;5.430;2022-07-29T12:45:04;25.00;36.50
51619;DHT22;38518;53.164;5.430;2022-07-29T12:47:30;25.00;40.10
51619;DHT22;38518;53.164;5.430;2022-07-29T12:50:13;25.90;21.30
51619;DHT22;38518;53.164;5.430;2022-07-29T12:52:44;26.20;20.20
51619;DHT22;38518;53.164;5.430;2022-07-29T12:55:11;26.60;10.90
51619;DHT22;38518;53.164;5.430;2022-07-29T12:57:46;26.90;4.50
51619;DHT22;38518;53.164;5.430;2022-07-29T13:00:13;27.00;6.40
51619;DHT22;38518;53.164;5.430;2022-07-29T13:02:41;27.20;5.10
51619;DHT22;38518;53.164;5.430;2022-07-29T13:05:09;27.50;2.40
51619;DHT22;38518;53.164;5.430;2022-07-29T13:07:36;27.60;1.70
51619;DHT22;38518;53.164;5.430;2022-07-29T13:10:15;27.90;1.00
51619;DHT22;38518;53.164;5.430;2022-07-29T13:13:04;28.20;1.00
51619;DHT22;38518;53.164;5.430;2022-07-29T13:15:31;28.50;1.00
51619;DHT22;38518;53.164;5.430;2022-07-29T13:17:57;28.50;1.00
51619;DHT22;38518;53.164;5.430;2022-07-29T13:20:25;28.60;1.00
51619;DHT22;38518;53.164;5.430;2022-07-29T13:22:53;28.70;1.00
51619;DHT22;38518;53.164;5.430;2022-07-29T13:25:30;28.70;1.00
51619;DHT22;38518;53.164;5.430;2022-07-29T13:27:57;28.90;1.00
51619;DHT22;38518;53.164;5.430;2022-07-29T13:30:23;28.90;1.00
51619;DHT22;38518;53.164;5.430;2022-07-29T13:32:51;29.70;1.00
51619;DHT22;38518;53.164;5.430;2022-07-29T13:35:19;29.20;1.00
51619;DHT22;38518;53.164;5.430;2022-07-29T13:37:45;29.20;1.00
51619;DHT22;38518;53.164;5.430;2022-07-29T13:40:12;29.40;1.00
51619;DHT22;38518;53.164;5.430;2022-07-29T13:42:38;29.50;1.00
51619;DHT22;38518;53.164;5.430;2022-07-29T13:45:05;29.50;1.00
51619;DHT22;38518;53.164;5.430;2022-07-29T13:47:32;29.60;1.00
51619;DHT22;38518;53.164;5.430;2022-07-29T13:49:57;29.50;1.00
51619;DHT22;38518;53.164;5.430;2022-07-29T13:52:23;29.50;1.00
51619;DHT22;38518;53.164;5.430;2022-07-29T13:54:49;29.60;1.00
51619;DHT22;38518;53.164;5.430;2022-07-29T13:57:16;29.40;1.00
51619;DHT22;38518;53.164;5.430;2022-07-29T13:59:43;29.50;1.00
51619;DHT22;38518;53.164;5.430;2022-07-29T14:02:10;29.40;1.00
51619;DHT22;38518;53.164;5.430;2022-07-29T14:04:36;29.40;1.00
51619;DHT22;38518;53.164;5.430;2022-07-29T14:07:02;29.40;1.00
51619;DHT22;38518;53.164;5.430;2022-07-29T14:09:28;29.20;1.00
51619;DHT22;38518;53.164;5.430;2022-07-29T14:11:54;29.30;1.00
51619;DHT22;38518;53.164;5.430;2022-07-29T14:14:20;29.30;1.00
51619;DHT22;38518;53.164;5.430;2022-07-29T14:16:46;29.50;1.00
51619;DHT22;38518;53.164;5.430;2022-07-29T14:19:12;29.80;1.00
51619;DHT22;38518;53.164;5.430;2022-07-29T14:21:38;29.80;1.00
51619;DHT22;38518;53.164;5.430;2022-07-29T14:24:04;29.70;1.00
51619;DHT22;38518;53.164;5.430;2022-07-29T14:26:30;29.80;1.00
51619;DHT22;38518;53.164;5.430;2022-07-29T14:28:56;29.70;1.00
51619;DHT22;38518;53.164;5.430;2022-07-29T14:31:22;30.00;1.00
51619;DHT22;38518;53.164;5.430;2022-07-29T14:33:48;30.20;1.00
51619;DHT22;38518;53.164;5.430;2022-07-29T14:36:13;30.10;1.00
51619;DHT22;38518;53.164;5.430;2022-07-29T14:38:39;30.20;1.00
51619;DHT22;38518;53.164;5.430;2022-07-29T14:41:06;30.50;1.00
51619;DHT22;38518;53.164;5.430;2022-07-29T14:43:33;30.10;1.00
51619;DHT22;38518;53.164;5.430;2022-07-29T14:46:00;29.90;1.00
51619;DHT22;38518;53.164;5.430;2022-07-29T14:48:25;30.00;1.00
51619;DHT22;38518;53.164;5.430;2022-07-29T14:50:51;30.30;1.00
51619;DHT22;38518;53.164;5.430;2022-07-29T14:53:17;30.10;1.00
51619;DHT22;38518;53.164;5.430;2022-07-29T14:55:43;30.00;1.00
51619;DHT22;38518;53.164;5.430;2022-07-29T14:58:09;30.10;1.00
51619;DHT22;38518;53.164;5.430;2022-07-29T15:00:35;30.30;1.00
51619;DHT22;38518;53.164;5.430;2022-07-29T15:03:02;30.50;1.00
51619;DHT22;38518;53.164;5.430;2022-07-29T15:05:29;30.50;1.00
51619;DHT22;38518;53.164;5.430;2022-07-29T15:07:55;30.30;1.00
51619;DHT22;38518;53.164;5.430;2022-07-29T15:10:21;30.60;1.00
51619;DHT22;38518;53.164;5.430;2022-07-29T15:12:47;30.60;1.00
51619;DHT22;38518;53.164;5.430;2022-07-29T15:15:12;31.00;1.00
51619;DHT22;38518;53.164;5.430;2022-07-29T15:17:38;31.00;1.00
51619;DHT22;38518;53.164;5.430;2022-07-29T15:20:04;30.90;1.00
51619;DHT22;38518;53.164;5.430;2022-07-29T15:22:30;31.00;1.00
51619;DHT22;38518;53.164;5.430;2022-07-29T15:24:56;31.30;1.00
51619;DHT22;38518;53.164;5.430;2022-07-29T15:27:22;31.30;1.00
51619;DHT22;38518;53.164;5.430;2022-07-29T15:29:47;31.00;1.00
51619;DHT22;38518;53.164;5.430;2022-07-29T15:32:13;30.70;1.00
51619;DHT22;38518;53.164;5.430;2022-07-29T15:34:39;30.30;1.00
51619;DHT22;38518;53.164;5.430;2022-07-29T15:37:05;30.30;1.00
51619;DHT22;38518;53.164;5.430;2022-07-29T15:39:31;30.00;1.00
51619;DHT22;38518;53.164;5.430;2022-07-29T15:41:58;29.70;1.00
51619;DHT22;38518;53.164;5.430;2022-07-29T15:44:25;28.70;1.00
51619;DHT22;38518;53.164;5.430;2022-07-29T15:46:51;27.70;1.00
51619;DHT22;38518;53.164;5.430;2022-07-29T15:49:39;26.90;1.00
51619;DHT22;38518;53.164;5.430;2022-07-29T15:52:07;26.50;1.00
51619;DHT22;38518;53.164;5.430;2022-07-29T15:54:37;26.10;1.00
51619;DHT22;38518;53.164;5.430;2022-07-29T15:57:04;25.90;1.00
51619;DHT22;38518;53.164;5.430;2022-07-29T15:59:31;25.50;1.00
51619;DHT22;38518;53.164;5.430;2022-07-29T16:01:57;25.30;1.00
51619;DHT22;38518;53.164;5.430;2022-07-29T16:04:25;25.10;1.00
51619;DHT22;38518;53.164;5.430;2022-07-29T16:06:52;25.10;1.00
51619;DHT22;38518;53.164;5.430;2022-07-29T16:09:18;24.90;2.10
51619;DHT22;38518;53.164;5.430;2022-07-29T16:11:45;24.90;2.40
51619;DHT22;38518;53.164;5.430;2022-07-29T16:14:12;24.70;3.40
51619;DHT22;38518;53.164;5.430;2022-07-29T16:16:38;24.70;4.40
51619;DHT22;38518;53.164;5.430;2022-07-29T16:19:05;24.60;6.60
51619;DHT22;38518;53.164;5.430;2022-07-29T16:21:31;24.50;5.10
51619;DHT22;38518;53.164;5.430;2022-07-29T16:24:00;24.40;5.50
51619;DHT22;38518;53.164;5.430;2022-07-29T16:26:26;24.30;6.10